createdAt,value
2022-10-09T00:02:42.689Z,86.22
2022-10-09T00:07:44.253Z,86.40
2022-10-09T00:12:46.188Z,86.84
2022-10-09T00:17:47.964Z,88.04
2022-10-09T00:22:49.851Z,87.95
2022-10-09T00:27:51.560Z,88.40
2022-10-09T00:32:53.927Z,88.96
2022-10-09T00:37:55.606Z,90.60
2022-10-09T00:42:58.170Z,91.67
2022-10-09T00:48:10.293Z,92.53
2022-10-09T00:53:16.083Z,92.72
2022-10-09T00:58:18.496Z,92.25
2022-10-09T01:03:20.118Z,91.83
2022-10-09T01:08:55.664Z,92.08
2022-10-09T01:14:19.616Z,93.90
2022-10-09T01:19:32.905Z,94.86
2022-10-09T01:25:04.928Z,96.08
2022-10-09T01:30:10.622Z,97.01
2022-10-09T01:35:13.248Z,97.92
2022-10-09T01:40:17.228Z,97.91
2022-10-09T01:45:18.775Z,98.03
2022-10-09T01:50:28.049Z,97.47
2022-10-09T01:55:38.381Z,97.56
2022-10-09T02:00:45.577Z,99.40
2022-10-09T02:05:49.307Z,100.00
2022-10-09T02:10:56.501Z,100.00
2022-10-09T02:16:21.504Z,100.00
2022-10-09T02:21:38.917Z,100.00
2022-10-09T02:26:41.378Z,100.00
2022-10-09T02:31:43.920Z,99.74
2022-10-09T02:36:46.426Z,100.00
2022-10-09T02:41:47.933Z,100.00
2022-10-09T02:46:49.625Z,100.00
2022-10-09T02:51:51.342Z,100.00
2022-10-09T02:56:52.897Z,100.00
2022-10-09T03:01:54.504Z,100.00
2022-10-09T03:06:56.135Z,100.00
2022-10-09T03:11:57.721Z,100.00
2022-10-09T03:16:59.298Z,99.74
2022-10-09T03:22:00.872Z,100.00
2022-10-09T03:27:02.433Z,100.00
2022-10-09T03:32:04.077Z,100.00
2022-10-09T03:37:05.908Z,100.00
2022-10-09T03:42:07.521Z,100.00
2022-10-09T03:47:09.177Z,100.00
2022-10-09T03:52:10.861Z,100.00
2022-10-09T03:57:12.457Z,100.00
2022-10-09T04:02:13.984Z,100.00
2022-10-09T04:07:15.529Z,100.00
2022-10-09T04:12:17.396Z,100.00
2022-10-09T04:17:18.939Z,100.00
2022-10-09T04:22:20.513Z,100.00
2022-10-09T04:27:22.060Z,100.00
2022-10-09T04:32:23.590Z,100.00
2022-10-09T04:37:25.145Z,100.00
2022-10-09T04:42:26.698Z,100.00
2022-10-09T04:47:28.219Z,100.00
2022-10-09T04:52:29.885Z,100.00
2022-10-09T04:57:31.379Z,100.00
2022-10-09T05:02:33.000Z,100.00
2022-10-09T05:07:34.653Z,100.00
2022-10-09T05:12:36.221Z,100.00
2022-10-09T05:17:37.808Z,100.00
2022-10-09T05:22:39.365Z,100.00
2022-10-09T05:27:41.045Z,100.00
2022-10-09T05:32:42.599Z,100.00
2022-10-09T05:37:45.570Z,100.00
2022-10-09T05:42:49.821Z,100.00
2022-10-09T05:47:51.609Z,100.00
2022-10-09T05:52:53.144Z,100.00
2022-10-09T05:57:54.725Z,100.00
2022-10-09T06:02:56.477Z,100.00
2022-10-09T06:07:58.216Z,100.00
2022-10-09T06:12:59.799Z,100.00
2022-10-09T06:18:01.392Z,100.00
2022-10-09T06:23:03.000Z,100.00
2022-10-09T06:28:04.642Z,100.00
2022-10-09T06:33:06.271Z,100.00
2022-10-09T06:38:08.190Z,100.00
2022-10-09T06:43:09.734Z,100.00
2022-10-09T06:48:11.425Z,100.00
2022-10-09T06:53:13.173Z,100.00
2022-10-09T06:58:14.771Z,100.00
2022-10-09T07:03:16.381Z,100.00
2022-10-09T07:08:18.049Z,100.00
2022-10-09T07:13:19.697Z,100.00
2022-10-09T07:18:21.305Z,98.22
2022-10-09T07:23:22.943Z,97.12
2022-10-09T07:28:26.348Z,95.67
2022-10-09T07:33:27.944Z,94.62
2022-10-09T07:38:29.853Z,94.89
2022-10-09T07:43:31.637Z,94.73
2022-10-09T07:48:35.258Z,88.54
2022-10-09T07:53:37.851Z,88.74
2022-10-09T07:58:39.443Z,90.88
2022-10-09T08:03:41.185Z,88.70
2022-10-09T08:08:42.850Z,88.00
2022-10-09T08:13:45.598Z,86.69
2022-10-09T08:18:48.098Z,84.03
2022-10-09T08:23:54.148Z,82.89
2022-10-09T08:28:59.144Z,84.36
2022-10-09T08:34:03.033Z,86.03
2022-10-09T08:39:04.763Z,84.89
2022-10-09T08:44:29.309Z,83.34
2022-10-09T08:49:52.259Z,83.90
2022-10-09T08:54:57.297Z,83.05
2022-10-09T08:59:59.063Z,77.74
2022-10-09T09:05:12.685Z,75.59
2022-10-09T09:10:23.142Z,74.01
2022-10-09T09:15:49.238Z,73.24
2022-10-09T09:21:01.055Z,74.20
2022-10-09T09:26:03.511Z,72.35
2022-10-09T09:31:26.049Z,71.76
2022-10-09T09:36:39.091Z,71.09
2022-10-09T09:41:42.917Z,69.53
2022-10-09T09:46:47.684Z,67.72
2022-10-09T09:51:50.865Z,69.01
2022-10-09T09:57:15.819Z,67.39
2022-10-09T10:02:21.280Z,60.65
2022-10-09T10:07:37.633Z,62.22
2022-10-09T10:12:52.695Z,60.29
2022-10-09T10:17:59.045Z,60.96
2022-10-09T10:23:00.997Z,59.89
2022-10-09T10:28:17.857Z,55.19
2022-10-09T10:33:25.093Z,55.18
2022-10-09T10:38:39.390Z,50.75
2022-10-09T10:43:45.005Z,54.58
2022-10-09T10:48:48.145Z,50.49
2022-10-09T10:54:33.487Z,52.19
2022-10-09T11:00:03.845Z,49.77
2022-10-09T11:05:25.480Z,47.84
2022-10-09T11:10:35.958Z,50.34
2022-10-09T11:16:07.155Z,46.54
2022-10-09T11:21:14.155Z,44.00
2022-10-09T11:26:43.330Z,44.23
2022-10-09T11:31:53.434Z,44.64
2022-10-09T11:36:56.805Z,44.93
2022-10-09T11:41:59.970Z,46.30
2022-10-09T11:47:23.700Z,44.96
2022-10-09T11:53:02.485Z,42.66
2022-10-09T11:58:24.356Z,44.71
2022-10-09T12:03:33.625Z,44.92
2022-10-09T12:08:36.196Z,44.75
2022-10-09T12:13:38.740Z,46.25
2022-10-09T12:18:46.060Z,48.16
2022-10-09T12:23:49.319Z,47.27
2022-10-09T12:28:55.690Z,48.20
2022-10-09T12:34:03.618Z,47.90
2022-10-09T12:39:19.338Z,48.84
2022-10-09T12:44:32.433Z,49.33
2022-10-09T12:49:34.282Z,48.89
2022-10-09T12:54:42.977Z,48.60
2022-10-09T12:59:46.275Z,48.92
2022-10-09T13:05:00.868Z,50.06
2022-10-09T13:10:18.837Z,49.54
2022-10-09T13:15:38.728Z,50.37
2022-10-09T13:20:40.554Z,49.51
2022-10-09T13:25:44.177Z,49.67
2022-10-09T13:30:45.877Z,50.56
2022-10-09T13:35:47.766Z,50.51
2022-10-09T13:40:49.640Z,51.23
2022-10-09T13:45:51.226Z,50.01
2022-10-09T13:50:52.820Z,50.66
2022-10-09T13:55:59.958Z,49.55
2022-10-09T14:01:16.437Z,49.52
2022-10-09T14:06:18.759Z,50.82
2022-10-09T14:11:20.402Z,49.42
2022-10-09T14:16:22.810Z,49.70
2022-10-09T14:21:24.443Z,49.34
2022-10-09T14:26:27.440Z,47.81
2022-10-09T14:31:29.980Z,47.82
2022-10-09T14:36:31.788Z,47.60
2022-10-09T14:41:37.607Z,48.10
2022-10-09T14:46:39.625Z,47.04
2022-10-09T14:51:41.635Z,50.01
2022-10-09T14:56:43.355Z,50.46
2022-10-09T15:01:44.960Z,50.76
2022-10-09T15:06:46.489Z,50.98
2022-10-09T15:11:48.028Z,52.13
2022-10-09T15:16:49.611Z,53.12
2022-10-09T15:21:51.376Z,53.12
2022-10-09T15:26:52.971Z,53.00
2022-10-09T15:31:54.579Z,52.46
2022-10-09T15:36:56.323Z,53.60
2022-10-09T15:41:57.877Z,53.02
2022-10-09T15:46:59.428Z,54.33
2022-10-09T15:52:01.179Z,53.79
2022-10-09T15:57:02.887Z,54.66
2022-10-09T16:02:04.613Z,54.48
2022-10-09T16:07:13.193Z,55.68
2022-10-09T16:12:14.859Z,55.74
2022-10-09T16:17:16.408Z,57.74
2022-10-09T16:22:17.970Z,59.79
2022-10-09T16:27:19.537Z,61.33
2022-10-09T16:32:21.443Z,62.65
2022-10-09T16:37:23.146Z,64.40
2022-10-09T16:42:24.707Z,65.14
2022-10-09T16:47:26.250Z,66.12
2022-10-09T16:52:27.894Z,67.15
2022-10-09T16:57:29.494Z,69.12
2022-10-09T17:02:31.328Z,69.96
2022-10-09T17:07:33.794Z,72.00
2022-10-09T17:12:37.115Z,72.81
2022-10-09T17:17:38.910Z,74.27
2022-10-09T17:22:40.750Z,75.88
2022-10-09T17:27:42.727Z,76.20
2022-10-09T17:32:44.395Z,77.32
2022-10-09T17:37:47.158Z,77.88
2022-10-09T17:42:49.163Z,78.17
2022-10-09T17:47:51.689Z,79.40
2022-10-09T17:52:53.640Z,79.70
2022-10-09T17:57:55.976Z,80.10
2022-10-09T18:02:58.302Z,80.95
2022-10-09T18:08:00.116Z,81.13
2022-10-09T18:13:06.013Z,80.37
2022-10-09T18:18:09.059Z,82.31
2022-10-09T18:23:10.738Z,83.49
2022-10-09T18:28:12.745Z,83.33
2022-10-09T18:33:14.827Z,84.86
2022-10-09T18:38:17.031Z,85.07
2022-10-09T18:43:18.582Z,85.65
2022-10-09T18:48:20.991Z,85.65
2022-10-09T18:53:22.789Z,85.45
2022-10-09T18:58:24.466Z,86.29
2022-10-09T19:03:26.061Z,85.81
2022-10-09T19:08:27.563Z,86.38
2022-10-09T19:13:29.568Z,87.38
2022-10-09T19:18:31.790Z,88.28
2022-10-09T19:23:33.509Z,88.55
2022-10-09T19:28:37.915Z,89.04
2022-10-09T19:33:41.209Z,89.52
2022-10-09T19:38:43.248Z,89.97
2022-10-09T19:43:45.174Z,90.25
2022-10-09T19:48:47.147Z,89.89
2022-10-09T19:53:49.946Z,88.95
2022-10-09T19:58:52.356Z,88.07
2022-10-09T20:04:00.053Z,89.02
2022-10-09T20:09:01.929Z,88.41
2022-10-09T20:14:04.165Z,86.16
2022-10-09T20:19:06.082Z,85.00
2022-10-09T20:24:08.489Z,84.00
2022-10-09T20:29:10.217Z,83.51
2022-10-09T20:34:11.752Z,83.05
2022-10-09T20:39:15.289Z,83.62
2022-10-09T20:44:16.945Z,83.58
2022-10-09T20:49:18.610Z,85.29
2022-10-09T20:54:21.568Z,84.04
2022-10-09T20:59:23.242Z,83.17
2022-10-09T21:04:24.932Z,82.70
2022-10-09T21:09:30.882Z,82.69
2022-10-09T21:14:34.630Z,83.67
2022-10-09T21:19:36.273Z,83.46
2022-10-09T21:24:37.800Z,83.43
2022-10-09T21:29:39.428Z,83.57
2022-10-09T21:34:41.020Z,83.31
2022-10-09T21:39:42.655Z,83.43
2022-10-09T21:44:44.375Z,83.70
2022-10-09T21:49:46.762Z,84.50
2022-10-09T21:54:48.337Z,84.71
2022-10-09T21:59:49.972Z,85.12
2022-10-09T22:04:51.700Z,84.79
2022-10-09T22:09:53.563Z,85.55
2022-10-09T22:14:55.917Z,85.88
2022-10-09T22:19:57.464Z,86.01
2022-10-09T22:25:00.344Z,86.36
2022-10-09T22:30:01.955Z,86.76
2022-10-09T22:35:03.819Z,86.34
2022-10-09T22:40:05.846Z,86.55
2022-10-09T22:45:08.114Z,86.45
2022-10-09T22:50:09.881Z,87.65
2022-10-09T22:55:11.457Z,87.39
2022-10-09T23:00:14.009Z,88.24
2022-10-09T23:05:15.573Z,88.69
2022-10-09T23:10:17.236Z,89.50
2022-10-09T23:15:19.237Z,89.56
2022-10-09T23:20:21.186Z,89.19
2022-10-09T23:25:22.745Z,90.01
2022-10-09T23:30:24.284Z,90.87
2022-10-09T23:35:25.941Z,90.82
2022-10-09T23:40:27.500Z,91.03
2022-10-09T23:45:29.057Z,91.15
2022-10-09T23:50:30.737Z,90.09
2022-10-09T23:55:32.277Z,90.99
